createdAt,value
2023-01-07T06:42:28.715Z,41.60
2023-01-07T06:44:56.697Z,37.33
2023-01-07T06:47:25.869Z,35.40
2023-01-07T06:49:53.708Z,37.67
2023-01-07T06:52:21.693Z,39.20
2023-01-07T06:55:08.319Z,42.75
2023-01-07T06:58:13.351Z,46.22
2023-01-07T07:00:41.215Z,43.75
2023-01-07T07:03:27.843Z,56.78
2023-01-07T07:05:55.711Z,51.63
2023-01-07T07:08:23.385Z,47.03
2023-01-07T07:10:51.360Z,42.70
2023-01-07T07:13:19.242Z,42.78
2023-01-07T07:15:47.156Z,41.50
2023-01-07T07:18:14.935Z,38.15
2023-01-07T07:21:00.923Z,38.63
2023-01-07T07:23:47.488Z,38.85
2023-01-07T07:26:15.421Z,38.95
2023-01-07T07:29:01.586Z,39.78
2023-01-07T07:31:29.746Z,40.72
2023-01-07T07:33:57.568Z,39.80
2023-01-07T07:36:25.273Z,41.90
2023-01-07T07:38:53.115Z,43.38
2023-01-07T07:41:21.404Z,44.30
2023-01-07T07:44:08.548Z,49.65
2023-01-07T07:46:55.203Z,47.90
2023-01-07T07:49:23.125Z,55.90
2023-01-07T07:51:50.919Z,61.40
2023-01-07T07:54:18.760Z,61.92
2023-01-07T07:56:46.624Z,65.82
2023-01-07T07:59:14.354Z,71.40
2023-01-07T08:01:42.292Z,76.50
2023-01-07T08:04:10.254Z,79.60
2023-01-07T08:06:56.657Z,79.38
2023-01-07T08:09:24.458Z,83.22
2023-01-07T08:11:52.313Z,84.88
2023-01-07T08:14:38.626Z,87.53
2023-01-07T08:17:06.460Z,78.57
2023-01-07T08:19:34.326Z,78.88
2023-01-07T08:22:02.047Z,68.10
2023-01-07T08:24:29.968Z,69.57
2023-01-07T08:26:57.860Z,75.38
2023-01-07T08:29:25.697Z,73.65
2023-01-07T08:31:53.626Z,70.57
2023-01-07T08:34:21.857Z,69.00
2023-01-07T08:36:50.322Z,62.28
2023-01-07T08:39:19.236Z,59.35
2023-01-07T08:42:05.332Z,52.85
2023-01-07T08:45:10.415Z,50.47
2023-01-07T08:47:38.894Z,48.92
2023-01-07T08:50:07.119Z,51.63
2023-01-07T08:52:53.256Z,53.40
2023-01-07T08:55:21.464Z,54.10
2023-01-07T08:57:49.579Z,56.72
2023-01-07T09:00:36.103Z,68.07
2023-01-07T09:03:04.321Z,59.90
2023-01-07T09:05:33.940Z,60.20
2023-01-07T09:08:04.235Z,62.50
2023-01-07T09:10:32.245Z,60.78
2023-01-07T09:13:00.116Z,56.63
2023-01-07T09:15:46.228Z,55.75
2023-01-07T09:18:14.057Z,48.53
2023-01-07T09:20:41.767Z,53.67
2023-01-07T09:23:09.695Z,52.88
2023-01-07T09:25:37.621Z,57.70
2023-01-07T09:28:23.926Z,53.47
2023-01-07T09:30:51.895Z,54.95
2023-01-07T09:33:19.758Z,53.10
2023-01-07T09:35:47.681Z,55.20
2023-01-07T09:38:15.498Z,51.05
2023-01-07T09:40:43.922Z,48.45
2023-01-07T09:43:59.339Z,46.78
2023-01-07T09:46:29.959Z,48.90
2023-01-07T09:49:00.561Z,48.60
2023-01-07T09:51:32.316Z,46.58
2023-01-07T09:54:01.943Z,47.53
2023-01-07T09:56:36.821Z,39.00
2023-01-07T09:59:05.130Z,41.20
2023-01-07T10:01:54.998Z,43.50
2023-01-07T10:04:50.242Z,40.75
2023-01-07T10:07:30.069Z,44.70
2023-01-07T10:10:17.852Z,43.88
2023-01-07T10:13:12.037Z,43.78
2023-01-07T10:16:30.342Z,39.35
2023-01-07T10:19:32.123Z,31.73
2023-01-07T10:22:03.253Z,29.10
2023-01-07T10:24:38.090Z,34.95
2023-01-07T10:27:10.447Z,40.33
2023-01-07T10:29:53.444Z,41.60
2023-01-07T10:35:09.550Z,34.60
2023-01-07T10:37:39.171Z,31.98
2023-01-07T10:40:12.905Z,33.70
2023-01-07T10:42:50.404Z,37.22
2023-01-07T10:45:34.871Z,34.05
2023-01-07T10:48:37.557Z,38.15
2023-01-07T10:51:42.158Z,47.90
2023-01-07T10:54:31.605Z,42.83
2023-01-07T10:57:04.295Z,43.83
2023-01-07T10:59:32.023Z,38.95
2023-01-07T11:02:00.097Z,40.50
2023-01-07T11:04:28.000Z,40.65
2023-01-07T11:07:05.422Z,40.15
2023-01-07T11:09:42.144Z,43.85
2023-01-07T11:12:21.587Z,39.25
2023-01-07T11:14:49.297Z,35.15
2023-01-07T11:17:35.399Z,38.15
2023-01-07T11:20:03.827Z,39.53
2023-01-07T11:22:34.077Z,42.75
2023-01-07T11:25:03.181Z,44.05
2023-01-07T11:27:32.687Z,43.80
2023-01-07T11:30:11.316Z,43.72
2023-01-07T11:32:40.694Z,44.70
2023-01-07T11:35:22.911Z,46.42
2023-01-07T11:37:51.078Z,44.33
2023-01-07T11:40:30.175Z,46.75
2023-01-07T11:43:38.465Z,41.95
2023-01-07T11:46:20.025Z,42.25
2023-01-07T11:48:53.367Z,40.45
2023-01-07T11:51:22.149Z,38.30
2023-01-07T11:53:49.851Z,35.45
2023-01-07T11:56:20.713Z,37.35
2023-01-07T11:58:49.323Z,37.15
2023-01-07T12:01:24.125Z,37.80
2023-01-07T12:04:47.637Z,38.33
2023-01-07T12:07:16.037Z,34.83
2023-01-07T12:09:45.032Z,34.83
2023-01-07T12:12:35.023Z,30.73
2023-01-07T12:15:05.743Z,30.45
2023-01-07T12:17:34.506Z,27.92
2023-01-07T12:20:05.144Z,28.67
2023-01-07T12:22:39.649Z,25.77
2023-01-07T12:25:41.593Z,25.95
2023-01-07T12:28:13.298Z,20.50
2023-01-07T12:30:51.391Z,21.13
2023-01-07T12:33:42.039Z,23.00
2023-01-07T12:36:53.191Z,22.80
2023-01-07T12:39:30.054Z,23.35
2023-01-07T12:42:27.785Z,25.98
2023-01-07T12:45:19.468Z,24.58
2023-01-07T12:47:53.621Z,24.77
2023-01-07T12:50:51.520Z,24.40
2023-01-07T12:53:33.802Z,24.30
2023-01-07T12:56:05.487Z,23.27
2023-01-07T12:58:51.160Z,21.67
2023-01-07T13:01:39.700Z,23.80
2023-01-07T13:04:16.499Z,24.23
2023-01-07T13:07:05.040Z,23.27
2023-01-07T13:10:01.439Z,21.80
2023-01-07T13:12:45.331Z,18.80
2023-01-07T13:15:27.613Z,16.73
2023-01-07T13:18:15.544Z,17.10
2023-01-07T13:20:49.336Z,15.63
2023-01-07T13:23:40.097Z,15.27
2023-01-07T13:26:20.880Z,16.23
2023-01-07T13:29:29.602Z,17.13
2023-01-07T13:32:14.673Z,16.35
2023-01-07T13:35:04.332Z,17.08
2023-01-07T13:37:57.110Z,16.95
2023-01-07T13:40:24.920Z,17.30
2023-01-07T13:43:23.803Z,18.23
2023-01-07T13:46:12.744Z,17.58
2023-01-07T13:48:59.376Z,15.82
2023-01-07T13:51:50.355Z,15.73
2023-01-07T13:54:53.106Z,14.57
2023-01-07T13:57:39.603Z,16.33
2023-01-07T14:00:27.950Z,15.55
2023-01-07T14:02:59.176Z,17.17
2023-01-07T14:05:28.443Z,17.77
2023-01-07T14:08:00.801Z,18.15
2023-01-07T14:10:51.912Z,19.85
2023-01-07T14:13:28.652Z,18.08
2023-01-07T14:16:21.282Z,20.27
2023-01-07T14:19:07.977Z,20.83
2023-01-07T14:21:50.352Z,18.50
2023-01-07T14:24:46.874Z,15.63
2023-01-07T14:27:49.082Z,12.68
2023-01-07T14:30:23.672Z,14.85
2023-01-07T14:33:22.827Z,16.50
2023-01-07T14:36:01.351Z,20.05
2023-01-07T14:38:32.173Z,24.77
2023-01-07T14:41:10.685Z,26.25
2023-01-07T14:43:41.618Z,28.73
2023-01-07T14:46:24.723Z,28.90
2023-01-07T14:49:19.998Z,28.50
2023-01-07T14:52:11.854Z,19.73
2023-01-07T14:54:47.269Z,14.30
2023-01-07T14:57:36.143Z,13.80
2023-01-07T15:00:13.091Z,11.93
2023-01-07T15:03:14.814Z,13.63
2023-01-07T15:06:03.039Z,13.80
2023-01-07T15:09:19.928Z,19.23
2023-01-07T15:12:06.490Z,24.33
2023-01-07T15:15:06.180Z,31.02
2023-01-07T15:18:10.707Z,45.60
2023-01-07T15:20:55.656Z,48.95
2023-01-07T15:23:44.874Z,51.67
2023-01-07T15:26:36.854Z,48.60
2023-01-07T15:29:29.548Z,54.60
2023-01-07T15:32:07.375Z,56.30
2023-01-07T15:34:35.296Z,59.28
2023-01-07T15:37:05.592Z,62.53
2023-01-07T15:39:35.359Z,62.92
2023-01-07T15:42:04.772Z,66.45
2023-01-07T15:44:54.700Z,64.22
2023-01-07T15:47:41.856Z,60.25
2023-01-07T15:50:29.400Z,59.55
2023-01-07T15:53:00.390Z,59.35
2023-01-07T15:55:37.789Z,57.38
2023-01-07T15:58:18.799Z,58.25
2023-01-07T16:01:05.634Z,56.30
2023-01-07T16:03:33.538Z,51.40
2023-01-07T16:06:02.131Z,50.72
2023-01-07T16:09:16.437Z,46.72
2023-01-07T16:12:07.258Z,45.55
2023-01-07T16:14:36.441Z,44.80
2023-01-07T16:17:05.893Z,44.60
2023-01-07T16:19:33.653Z,63.30
2023-01-07T16:22:21.695Z,44.53
2023-01-07T16:25:12.547Z,38.35
2023-01-07T16:27:41.418Z,37.00
2023-01-07T16:30:15.153Z,36.25
2023-01-07T16:32:44.468Z,38.20
2023-01-07T16:35:31.601Z,44.08
2023-01-07T16:37:59.769Z,48.03
2023-01-07T16:40:37.959Z,45.33
2023-01-07T16:43:06.125Z,49.67
2023-01-07T16:46:07.489Z,43.75
2023-01-07T16:48:35.517Z,45.80
2023-01-07T16:51:03.389Z,47.72
2023-01-07T16:53:33.990Z,46.13
2023-01-07T16:56:12.322Z,48.20
2023-01-07T16:58:58.935Z,51.17
2023-01-07T17:01:36.439Z,49.47
2023-01-07T17:04:08.273Z,52.85
2023-01-07T17:06:58.650Z,53.13
2023-01-07T17:09:37.057Z,53.97
2023-01-07T17:12:05.219Z,54.40
2023-01-07T17:14:39.312Z,54.90
2023-01-07T17:17:15.668Z,51.88
2023-01-07T17:19:53.015Z,54.88
2023-01-07T17:22:33.739Z,53.53
2023-01-07T17:25:14.208Z,54.45
2023-01-07T17:28:02.086Z,57.53
2023-01-07T17:30:34.339Z,71.72
2023-01-07T17:33:02.337Z,55.13
2023-01-07T17:35:30.168Z,52.10
2023-01-07T17:37:58.080Z,48.65
2023-01-07T17:40:26.200Z,48.88
2023-01-07T17:43:14.630Z,49.65
2023-01-07T17:45:42.759Z,50.72
2023-01-07T17:48:14.308Z,49.72
2023-01-07T17:51:01.759Z,49.90
2023-01-07T17:53:49.969Z,49.42
2023-01-07T17:56:18.011Z,52.17
2023-01-07T17:58:45.876Z,53.20
2023-01-07T18:01:15.820Z,53.28
2023-01-07T18:03:46.714Z,55.03
2023-01-07T18:06:22.407Z,54.67
2023-01-07T18:08:51.136Z,55.78
2023-01-07T18:11:39.100Z,55.05
2023-01-07T18:14:07.045Z,56.55
2023-01-07T18:16:34.922Z,52.85
2023-01-07T18:19:02.705Z,54.40
2023-01-07T18:21:30.527Z,52.63
2023-01-07T18:24:17.475Z,48.58
2023-01-07T18:26:45.477Z,52.67
2023-01-07T18:29:32.108Z,55.30
2023-01-07T18:31:59.912Z,52.38
2023-01-07T18:34:46.308Z,53.90
2023-01-07T18:37:15.430Z,57.55
2023-01-07T18:39:43.351Z,62.83
2023-01-07T18:42:11.521Z,63.35
2023-01-07T18:44:58.035Z,74.30
2023-01-07T18:47:25.966Z,83.13
2023-01-07T18:50:13.331Z,88.05
2023-01-07T18:52:43.003Z,89.75
2023-01-07T18:55:11.062Z,89.43
2023-01-07T18:57:38.987Z,90.03
2023-01-07T19:00:07.434Z,83.75
2023-01-07T19:02:35.349Z,80.80
2023-01-07T19:05:03.186Z,79.22
2023-01-07T19:07:31.428Z,78.97
2023-01-07T19:09:59.159Z,76.88
2023-01-07T19:12:29.500Z,77.20
2023-01-07T19:15:15.853Z,72.05
2023-01-07T19:17:43.652Z,70.85
2023-01-07T19:20:30.012Z,70.03
2023-01-07T19:23:00.566Z,72.53
2023-01-07T19:25:47.451Z,66.05
2023-01-07T19:28:15.369Z,63.13
2023-01-07T19:30:43.160Z,60.63
2023-01-07T19:33:10.984Z,55.97
2023-01-07T19:35:38.857Z,57.53
2023-01-07T19:38:07.320Z,58.97
2023-01-07T19:40:35.167Z,53.85
2023-01-07T19:43:04.833Z,51.25
2023-01-07T19:45:33.369Z,43.15
2023-01-07T19:48:02.716Z,43.80
2023-01-07T19:50:56.745Z,43.45
2023-01-07T19:53:24.862Z,44.70
2023-01-07T19:55:53.011Z,44.90
2023-01-07T19:58:21.818Z,46.15
2023-01-07T20:01:17.743Z,47.22
2023-01-07T20:03:46.145Z,48.80
2023-01-07T20:06:15.929Z,52.70
2023-01-07T20:09:21.249Z,51.17
2023-01-07T20:11:49.097Z,56.95
2023-01-07T20:14:17.118Z,56.67
2023-01-07T20:17:03.542Z,53.25
2023-01-07T20:19:31.437Z,56.20
2023-01-07T20:21:59.242Z,57.00
2023-01-07T20:24:27.166Z,51.25
2023-01-07T20:26:55.121Z,51.92
2023-01-07T20:29:41.084Z,55.03
2023-01-07T20:32:09.174Z,54.53
2023-01-07T20:34:36.924Z,53.35
2023-01-07T20:37:05.061Z,53.35
2023-01-07T20:39:51.264Z,53.72
2023-01-07T20:42:19.075Z,52.53
2023-01-07T20:44:47.647Z,46.70
2023-01-07T20:47:33.966Z,53.40
2023-01-07T20:50:19.933Z,44.22
2023-01-07T20:52:47.815Z,44.80
2023-01-07T20:55:15.750Z,43.42
2023-01-07T20:58:02.649Z,49.60
2023-01-07T21:00:30.679Z,55.67
2023-01-07T21:02:58.503Z,54.65
2023-01-07T21:05:26.877Z,55.72
2023-01-07T21:07:54.708Z,59.22
2023-01-07T21:10:22.629Z,61.70
2023-01-07T21:12:50.433Z,64.13
2023-01-07T21:15:18.703Z,66.68
2023-01-07T21:18:05.377Z,65.65
2023-01-07T21:20:33.287Z,69.35
2023-01-07T21:23:01.127Z,52.53
2023-01-07T21:25:28.921Z,56.67
2023-01-07T21:27:56.681Z,51.10
2023-01-07T21:30:43.054Z,58.60
2023-01-07T21:33:29.315Z,56.50
2023-01-07T21:35:57.135Z,63.08
2023-01-07T21:38:43.888Z,61.10
2023-01-07T21:41:13.382Z,65.43
2023-01-07T21:43:41.316Z,67.13
2023-01-07T21:46:28.055Z,62.08
2023-01-07T21:48:56.300Z,72.75
2023-01-07T21:51:27.684Z,71.88
2023-01-07T21:53:56.308Z,75.93
2023-01-07T21:56:25.070Z,70.88
2023-01-07T21:58:52.895Z,76.07
2023-01-07T22:01:57.803Z,73.78
2023-01-07T22:04:46.416Z,76.38
2023-01-07T22:07:15.472Z,79.63
2023-01-07T22:09:43.569Z,83.45
2023-01-07T22:12:11.469Z,85.82
2023-01-07T22:14:39.462Z,88.55
2023-01-07T22:17:44.424Z,92.90
2023-01-07T22:20:12.877Z,87.63
2023-01-07T22:22:58.714Z,72.95
2023-01-07T22:26:03.105Z,68.18
2023-01-07T22:28:31.629Z,68.25
2023-01-07T22:30:59.576Z,66.40
2023-01-07T22:33:27.376Z,68.80
2023-01-07T22:35:56.921Z,61.97
2023-01-07T22:38:42.960Z,59.55
2023-01-07T22:41:10.815Z,54.38
2023-01-07T22:43:58.480Z,51.50
2023-01-07T22:46:27.340Z,53.55
2023-01-07T22:48:55.431Z,53.75
2023-01-07T22:51:25.768Z,52.40
2023-01-07T22:53:54.028Z,53.00
2023-01-07T22:56:21.786Z,49.53
2023-01-07T22:58:49.661Z,50.30
2023-01-07T23:01:38.159Z,53.97
2023-01-07T23:04:06.205Z,53.33
2023-01-07T23:06:34.180Z,56.15
2023-01-07T23:09:20.648Z,52.08
2023-01-07T23:11:48.439Z,52.92
2023-01-07T23:14:17.577Z,51.90
2023-01-07T23:17:03.681Z,51.42
2023-01-07T23:19:32.290Z,53.30
2023-01-07T23:22:18.778Z,48.40
2023-01-07T23:24:46.674Z,50.00
2023-01-07T23:27:14.401Z,46.85
2023-01-07T23:30:00.482Z,47.95
2023-01-07T23:32:28.247Z,45.53
2023-01-07T23:34:56.137Z,49.88
2023-01-07T23:38:01.724Z,51.17
2023-01-07T23:40:29.534Z,53.47
2023-01-07T23:42:57.814Z,53.05
2023-01-07T23:45:25.939Z,52.95
2023-01-07T23:48:12.365Z,52.28
2023-01-07T23:50:40.256Z,51.20
2023-01-07T23:53:07.956Z,51.30
2023-01-07T23:55:54.222Z,52.95
2023-01-07T23:58:22.573Z,52.08
